sensor_id;sensor_type;location;lat;lon;timestamp;P1;durP1;ratioP1;P2;durP2;ratioP2
79468;SDS011;68936;52.526;13.326;2023-05-27T00:00:58;6.20;;;2.30;;
79468;SDS011;68936;52.526;13.326;2023-05-27T00:03:27;6.15;;;2.05;;
79468;SDS011;68936;52.526;13.326;2023-05-27T00:05:53;4.03;;;2.63;;
79468;SDS011;68936;52.526;13.326;2023-05-27T00:08:19;6.97;;;2.60;;
79468;SDS011;68936;52.526;13.326;2023-05-27T00:10:47;5.53;;;2.40;;
79468;SDS011;68936;52.526;13.326;2023-05-27T00:13:13;6.57;;;2.67;;
79468;SDS011;68936;52.526;13.326;2023-05-27T00:15:40;5.28;;;2.38;;
79468;SDS011;68936;52.526;13.326;2023-05-27T00:18:06;6.72;;;2.70;;
79468;SDS011;68936;52.526;13.326;2023-05-27T00:20:33;6.15;;;2.75;;
79468;SDS011;68936;52.526;13.326;2023-05-27T00:22:59;6.10;;;2.83;;
79468;SDS011;68936;52.526;13.326;2023-05-27T00:25:28;5.30;;;2.67;;
79468;SDS011;68936;52.526;13.326;2023-05-27T00:27:54;5.43;;;2.65;;
79468;SDS011;68936;52.526;13.326;2023-05-27T00:30:20;5.45;;;3.00;;
79468;SDS011;68936;52.526;13.326;2023-05-27T00:32:46;5.00;;;2.40;;
79468;SDS011;68936;52.526;13.326;2023-05-27T00:35:12;6.28;;;2.78;;
79468;SDS011;68936;52.526;13.326;2023-05-27T00:37:41;4.03;;;2.35;;
79468;SDS011;68936;52.526;13.326;2023-05-27T00:40:08;5.00;;;2.63;;
79468;SDS011;68936;52.526;13.326;2023-05-27T00:42:35;8.27;;;3.17;;
79468;SDS011;68936;52.526;13.326;2023-05-27T00:45:02;6.57;;;2.55;;
79468;SDS011;68936;52.526;13.326;2023-05-27T00:47:29;6.70;;;3.30;;
79468;SDS011;68936;52.526;13.326;2023-05-27T00:49:55;4.85;;;2.70;;
79468;SDS011;68936;52.526;13.326;2023-05-27T00:52:21;7.53;;;3.20;;
79468;SDS011;68936;52.526;13.326;2023-05-27T00:54:47;6.55;;;2.95;;
79468;SDS011;68936;52.526;13.326;2023-05-27T00:57:14;5.68;;;2.80;;
79468;SDS011;68936;52.526;13.326;2023-05-27T00:59:40;5.88;;;3.05;;
79468;SDS011;68936;52.526;13.326;2023-05-27T01:02:06;5.30;;;2.78;;
79468;SDS011;68936;52.526;13.326;2023-05-27T01:04:35;6.18;;;2.45;;
79468;SDS011;68936;52.526;13.326;2023-05-27T01:07:06;4.63;;;2.38;;
79468;SDS011;68936;52.526;13.326;2023-05-27T01:14:32;4.18;;;2.30;;
79468;SDS011;68936;52.526;13.326;2023-05-27T01:17:01;5.30;;;2.88;;
79468;SDS011;68936;52.526;13.326;2023-05-27T01:19:36;5.47;;;2.58;;
79468;SDS011;68936;52.526;13.326;2023-05-27T01:22:03;5.05;;;2.40;;
79468;SDS011;68936;52.526;13.326;2023-05-27T01:24:33;6.30;;;2.72;;
79468;SDS011;68936;52.526;13.326;2023-05-27T01:26:59;4.60;;;2.17;;
79468;SDS011;68936;52.526;13.326;2023-05-27T01:29:26;4.47;;;2.72;;
79468;SDS011;68936;52.526;13.326;2023-05-27T01:32:01;4.50;;;2.53;;
79468;SDS011;68936;52.526;13.326;2023-05-27T01:34:38;5.30;;;2.80;;
79468;SDS011;68936;52.526;13.326;2023-05-27T01:37:06;4.53;;;2.47;;
79468;SDS011;68936;52.526;13.326;2023-05-27T01:39:36;5.32;;;2.40;;
79468;SDS011;68936;52.526;13.326;2023-05-27T01:42:05;4.63;;;2.40;;
79468;SDS011;68936;52.526;13.326;2023-05-27T01:44:32;4.78;;;2.25;;
79468;SDS011;68936;52.526;13.326;2023-05-27T01:46:59;5.68;;;2.80;;
79468;SDS011;68936;52.526;13.326;2023-05-27T01:49:28;5.13;;;2.60;;
79468;SDS011;68936;52.526;13.326;2023-05-27T01:51:54;4.70;;;2.58;;
79468;SDS011;68936;52.526;13.326;2023-05-27T01:54:20;4.85;;;2.08;;
79468;SDS011;68936;52.526;13.326;2023-05-27T01:56:48;3.78;;;2.20;;
79468;SDS011;68936;52.526;13.326;2023-05-27T01:59:17;4.90;;;2.72;;
79468;SDS011;68936;52.526;13.326;2023-05-27T02:01:43;2.63;;;1.85;;
79468;SDS011;68936;52.526;13.326;2023-05-27T02:04:09;5.38;;;2.53;;
79468;SDS011;68936;52.526;13.326;2023-05-27T02:06:35;5.93;;;2.63;;
79468;SDS011;68936;52.526;13.326;2023-05-27T02:09:04;4.90;;;2.80;;
79468;SDS011;68936;52.526;13.326;2023-05-27T02:11:30;3.63;;;2.60;;
79468;SDS011;68936;52.526;13.326;2023-05-27T02:13:56;5.75;;;3.30;;
79468;SDS011;68936;52.526;13.326;2023-05-27T02:16:22;5.28;;;2.67;;
79468;SDS011;68936;52.526;13.326;2023-05-27T02:18:48;6.15;;;2.63;;
79468;SDS011;68936;52.526;13.326;2023-05-27T02:21:15;5.18;;;2.20;;
79468;SDS011;68936;52.526;13.326;2023-05-27T02:23:41;6.15;;;2.63;;
79468;SDS011;68936;52.526;13.326;2023-05-27T02:26:07;4.18;;;2.38;;
79468;SDS011;68936;52.526;13.326;2023-05-27T02:28:33;5.65;;;2.70;;
79468;SDS011;68936;52.526;13.326;2023-05-27T02:30:59;4.90;;;2.40;;
79468;SDS011;68936;52.526;13.326;2023-05-27T02:33:25;4.45;;;2.38;;
79468;SDS011;68936;52.526;13.326;2023-05-27T02:35:54;4.00;;;2.53;;
79468;SDS011;68936;52.526;13.326;2023-05-27T02:38:22;4.80;;;2.33;;
79468;SDS011;68936;52.526;13.326;2023-05-27T02:40:48;4.50;;;2.35;;
79468;SDS011;68936;52.526;13.326;2023-05-27T02:43:16;4.25;;;2.30;;
79468;SDS011;68936;52.526;13.326;2023-05-27T02:45:44;4.68;;;2.67;;
79468;SDS011;68936;52.526;13.326;2023-05-27T02:48:12;4.65;;;2.30;;
79468;SDS011;68936;52.526;13.326;2023-05-27T02:50:39;4.25;;;2.08;;
79468;SDS011;68936;52.526;13.326;2023-05-27T02:53:05;5.40;;;2.40;;
79468;SDS011;68936;52.526;13.326;2023-05-27T02:55:33;4.82;;;2.53;;
79468;SDS011;68936;52.526;13.326;2023-05-27T02:57:59;4.10;;;2.95;;
79468;SDS011;68936;52.526;13.326;2023-05-27T03:00:28;5.32;;;2.65;;
79468;SDS011;68936;52.526;13.326;2023-05-27T03:02:55;4.13;;;2.20;;
79468;SDS011;68936;52.526;13.326;2023-05-27T03:05:23;4.82;;;2.47;;
79468;SDS011;68936;52.526;13.326;2023-05-27T03:07:50;8.80;;;4.18;;
79468;SDS011;68936;52.526;13.326;2023-05-27T03:10:16;5.47;;;2.85;;
79468;SDS011;68936;52.526;13.326;2023-05-27T03:12:42;4.25;;;2.28;;
79468;SDS011;68936;52.526;13.326;2023-05-27T03:15:08;5.13;;;2.88;;
79468;SDS011;68936;52.526;13.326;2023-05-27T03:17:38;6.97;;;2.72;;
79468;SDS011;68936;52.526;13.326;2023-05-27T03:20:06;4.80;;;2.80;;
79468;SDS011;68936;52.526;13.326;2023-05-27T03:22:34;5.00;;;2.70;;
79468;SDS011;68936;52.526;13.326;2023-05-27T03:25:03;4.05;;;2.30;;
79468;SDS011;68936;52.526;13.326;2023-05-27T03:27:31;4.95;;;2.50;;
79468;SDS011;68936;52.526;13.326;2023-05-27T03:29:57;3.88;;;2.65;;
79468;SDS011;68936;52.526;13.326;2023-05-27T03:32:23;3.83;;;2.20;;
79468;SDS011;68936;52.526;13.326;2023-05-27T03:34:52;4.97;;;2.63;;
79468;SDS011;68936;52.526;13.326;2023-05-27T03:37:18;5.82;;;2.80;;
79468;SDS011;68936;52.526;13.326;2023-05-27T03:39:46;4.28;;;2.70;;
79468;SDS011;68936;52.526;13.326;2023-05-27T03:42:12;6.50;;;2.55;;
79468;SDS011;68936;52.526;13.326;2023-05-27T03:44:38;6.68;;;3.00;;
79468;SDS011;68936;52.526;13.326;2023-05-27T03:47:07;4.60;;;2.75;;
79468;SDS011;68936;52.526;13.326;2023-05-27T03:49:33;5.50;;;2.38;;
79468;SDS011;68936;52.526;13.326;2023-05-27T03:51:59;4.50;;;2.38;;
79468;SDS011;68936;52.526;13.326;2023-05-27T03:54:25;4.32;;;2.22;;
79468;SDS011;68936;52.526;13.326;2023-05-27T03:56:53;5.15;;;2.25;;
79468;SDS011;68936;52.526;13.326;2023-05-27T03:59:20;3.35;;;2.30;;
79468;SDS011;68936;52.526;13.326;2023-05-27T04:01:48;5.93;;;2.67;;
79468;SDS011;68936;52.526;13.326;2023-05-27T04:04:14;4.78;;;2.50;;
79468;SDS011;68936;52.526;13.326;2023-05-27T04:06:40;5.10;;;2.58;;
79468;SDS011;68936;52.526;13.326;2023-05-27T04:09:09;5.30;;;2.90;;
79468;SDS011;68936;52.526;13.326;2023-05-27T04:11:35;5.15;;;2.30;;
79468;SDS011;68936;52.526;13.326;2023-05-27T04:14:01;3.65;;;2.25;;
79468;SDS011;68936;52.526;13.326;2023-05-27T04:16:32;5.57;;;2.60;;
79468;SDS011;68936;52.526;13.326;2023-05-27T04:19:00;3.75;;;2.10;;
79468;SDS011;68936;52.526;13.326;2023-05-27T04:21:26;3.60;;;2.53;;
79468;SDS011;68936;52.526;13.326;2023-05-27T04:23:52;3.88;;;2.40;;
79468;SDS011;68936;52.526;13.326;2023-05-27T04:26:18;5.20;;;2.10;;
79468;SDS011;68936;52.526;13.326;2023-05-27T04:28:45;4.82;;;2.38;;
79468;SDS011;68936;52.526;13.326;2023-05-27T04:31:12;3.97;;;2.20;;
79468;SDS011;68936;52.526;13.326;2023-05-27T04:33:41;5.00;;;2.58;;
79468;SDS011;68936;52.526;13.326;2023-05-27T04:36:10;6.20;;;2.30;;
79468;SDS011;68936;52.526;13.326;2023-05-27T04:38:36;5.28;;;3.08;;
79468;SDS011;68936;52.526;13.326;2023-05-27T04:41:05;3.67;;;2.17;;
79468;SDS011;68936;52.526;13.326;2023-05-27T04:43:32;5.03;;;2.38;;
79468;SDS011;68936;52.526;13.326;2023-05-27T04:45:58;4.03;;;1.90;;
79468;SDS011;68936;52.526;13.326;2023-05-27T04:48:27;3.58;;;2.00;;
79468;SDS011;68936;52.526;13.326;2023-05-27T04:50:54;3.85;;;2.50;;
79468;SDS011;68936;52.526;13.326;2023-05-27T04:53:21;3.30;;;2.00;;
79468;SDS011;68936;52.526;13.326;2023-05-27T04:55:48;4.68;;;2.25;;
79468;SDS011;68936;52.526;13.326;2023-05-27T04:58:14;5.07;;;2.67;;
79468;SDS011;68936;52.526;13.326;2023-05-27T05:00:43;3.33;;;1.70;;
79468;SDS011;68936;52.526;13.326;2023-05-27T05:03:19;5.18;;;2.50;;
79468;SDS011;68936;52.526;13.326;2023-05-27T05:06:01;5.35;;;2.22;;
79468;SDS011;68936;52.526;13.326;2023-05-27T05:08:28;4.57;;;2.30;;
79468;SDS011;68936;52.526;13.326;2023-05-27T05:10:54;4.15;;;2.33;;
79468;SDS011;68936;52.526;13.326;2023-05-27T05:13:20;3.88;;;2.28;;
79468;SDS011;68936;52.526;13.326;2023-05-27T05:15:46;4.18;;;2.20;;
79468;SDS011;68936;52.526;13.326;2023-05-27T05:18:12;2.97;;;2.00;;
79468;SDS011;68936;52.526;13.326;2023-05-27T05:20:38;3.28;;;1.80;;
79468;SDS011;68936;52.526;13.326;2023-05-27T05:23:04;3.30;;;2.10;;
79468;SDS011;68936;52.526;13.326;2023-05-27T05:25:32;3.72;;;2.17;;
79468;SDS011;68936;52.526;13.326;2023-05-27T05:28:03;3.42;;;1.80;;
79468;SDS011;68936;52.526;13.326;2023-05-27T05:30:32;4.00;;;2.10;;
79468;SDS011;68936;52.526;13.326;2023-05-27T05:32:58;5.10;;;2.55;;
79468;SDS011;68936;52.526;13.326;2023-05-27T05:35:27;4.47;;;2.13;;
79468;SDS011;68936;52.526;13.326;2023-05-27T05:37:53;4.82;;;2.33;;
79468;SDS011;68936;52.526;13.326;2023-05-27T05:40:21;4.60;;;2.75;;
79468;SDS011;68936;52.526;13.326;2023-05-27T05:42:49;2.67;;;1.92;;
79468;SDS011;68936;52.526;13.326;2023-05-27T05:45:15;4.05;;;2.17;;
79468;SDS011;68936;52.526;13.326;2023-05-27T05:47:41;4.55;;;2.40;;
79468;SDS011;68936;52.526;13.326;2023-05-27T05:50:12;3.15;;;2.33;;
79468;SDS011;68936;52.526;13.326;2023-05-27T05:52:38;3.03;;;2.03;;
79468;SDS011;68936;52.526;13.326;2023-05-27T05:55:07;5.93;;;2.50;;
79468;SDS011;68936;52.526;13.326;2023-05-27T05:57:34;3.53;;;1.92;;
79468;SDS011;68936;52.526;13.326;2023-05-27T06:00:00;3.03;;;1.92;;
79468;SDS011;68936;52.526;13.326;2023-05-27T06:02:29;4.57;;;2.40;;
79468;SDS011;68936;52.526;13.326;2023-05-27T06:04:55;3.22;;;1.70;;
79468;SDS011;68936;52.526;13.326;2023-05-27T06:07:23;3.10;;;2.00;;
79468;SDS011;68936;52.526;13.326;2023-05-27T06:09:51;4.80;;;2.30;;
79468;SDS011;68936;52.526;13.326;2023-05-27T06:12:20;3.67;;;2.20;;
79468;SDS011;68936;52.526;13.326;2023-05-27T06:14:46;3.63;;;2.30;;
79468;SDS011;68936;52.526;13.326;2023-05-27T06:17:12;4.05;;;2.40;;
79468;SDS011;68936;52.526;13.326;2023-05-27T06:19:38;3.45;;;2.03;;
79468;SDS011;68936;52.526;13.326;2023-05-27T06:22:06;3.13;;;1.95;;
79468;SDS011;68936;52.526;13.326;2023-05-27T06:24:35;3.83;;;2.15;;
79468;SDS011;68936;52.526;13.326;2023-05-27T06:27:04;3.38;;;2.40;;
79468;SDS011;68936;52.526;13.326;2023-05-27T06:29:30;3.97;;;2.00;;
79468;SDS011;68936;52.526;13.326;2023-05-27T06:31:56;3.33;;;2.20;;
79468;SDS011;68936;52.526;13.326;2023-05-27T06:34:22;5.38;;;2.15;;
79468;SDS011;68936;52.526;13.326;2023-05-27T06:36:50;3.70;;;2.38;;
79468;SDS011;68936;52.526;13.326;2023-05-27T06:39:16;3.53;;;2.00;;
79468;SDS011;68936;52.526;13.326;2023-05-27T06:41:45;3.00;;;2.08;;
79468;SDS011;68936;52.526;13.326;2023-05-27T06:44:11;5.20;;;2.20;;
79468;SDS011;68936;52.526;13.326;2023-05-27T06:46:37;5.15;;;2.50;;
79468;SDS011;68936;52.526;13.326;2023-05-27T06:49:03;3.47;;;1.95;;
79468;SDS011;68936;52.526;13.326;2023-05-27T06:51:29;3.58;;;2.25;;
79468;SDS011;68936;52.526;13.326;2023-05-27T06:53:56;4.22;;;2.30;;
79468;SDS011;68936;52.526;13.326;2023-05-27T06:56:22;3.55;;;2.30;;
79468;SDS011;68936;52.526;13.326;2023-05-27T06:58:51;4.03;;;2.30;;
79468;SDS011;68936;52.526;13.326;2023-05-27T07:01:17;3.15;;;2.10;;
79468;SDS011;68936;52.526;13.326;2023-05-27T07:03:43;3.38;;;1.95;;
79468;SDS011;68936;52.526;13.326;2023-05-27T07:06:11;4.35;;;2.30;;
79468;SDS011;68936;52.526;13.326;2023-05-27T07:08:37;3.58;;;2.05;;
79468;SDS011;68936;52.526;13.326;2023-05-27T07:11:03;2.92;;;1.75;;
79468;SDS011;68936;52.526;13.326;2023-05-27T07:13:29;4.18;;;2.30;;
79468;SDS011;68936;52.526;13.326;2023-05-27T07:15:55;2.90;;;2.00;;
79468;SDS011;68936;52.526;13.326;2023-05-27T07:18:24;2.63;;;1.95;;
79468;SDS011;68936;52.526;13.326;2023-05-27T07:20:50;3.35;;;1.83;;
79468;SDS011;68936;52.526;13.326;2023-05-27T07:23:16;2.83;;;1.67;;
79468;SDS011;68936;52.526;13.326;2023-05-27T07:25:42;3.58;;;1.92;;
79468;SDS011;68936;52.526;13.326;2023-05-27T07:28:08;3.70;;;1.83;;
79468;SDS011;68936;52.526;13.326;2023-05-27T07:30:34;4.13;;;2.22;;
79468;SDS011;68936;52.526;13.326;2023-05-27T07:33:00;3.47;;;2.20;;
79468;SDS011;68936;52.526;13.326;2023-05-27T07:35:26;3.55;;;1.67;;
79468;SDS011;68936;52.526;13.326;2023-05-27T07:37:52;2.50;;;1.75;;
79468;SDS011;68936;52.526;13.326;2023-05-27T07:40:18;3.95;;;2.15;;
79468;SDS011;68936;52.526;13.326;2023-05-27T07:42:44;2.25;;;1.73;;
79468;SDS011;68936;52.526;13.326;2023-05-27T07:45:10;3.03;;;1.98;;
79468;SDS011;68936;52.526;13.326;2023-05-27T07:47:36;2.53;;;1.70;;
79468;SDS011;68936;52.526;13.326;2023-05-27T07:50:03;2.78;;;1.83;;
79468;SDS011;68936;52.526;13.326;2023-05-27T07:52:29;2.47;;;1.65;;
79468;SDS011;68936;52.526;13.326;2023-05-27T07:54:55;3.30;;;2.03;;
79468;SDS011;68936;52.526;13.326;2023-05-27T07:57:22;3.65;;;1.77;;
79468;SDS011;68936;52.526;13.326;2023-05-27T07:59:48;4.78;;;1.88;;
79468;SDS011;68936;52.526;13.326;2023-05-27T08:02:17;2.85;;;1.80;;
79468;SDS011;68936;52.526;13.326;2023-05-27T08:04:43;3.67;;;2.05;;
79468;SDS011;68936;52.526;13.326;2023-05-27T08:07:09;2.40;;;1.80;;
79468;SDS011;68936;52.526;13.326;2023-05-27T08:09:35;3.22;;;2.03;;
79468;SDS011;68936;52.526;13.326;2023-05-27T08:12:01;13.20;;;1.80;;
79468;SDS011;68936;52.526;13.326;2023-05-27T08:14:27;3.08;;;1.60;;
79468;SDS011;68936;52.526;13.326;2023-05-27T08:16:55;2.60;;;1.77;;
79468;SDS011;68936;52.526;13.326;2023-05-27T08:19:22;3.25;;;2.10;;
79468;SDS011;68936;52.526;13.326;2023-05-27T08:21:48;5.93;;;2.05;;
79468;SDS011;68936;52.526;13.326;2023-05-27T08:24:16;9.20;;;1.75;;
79468;SDS011;68936;52.526;13.326;2023-05-27T08:26:46;5.18;;;1.33;;
79468;SDS011;68936;52.526;13.326;2023-05-27T08:29:14;2.50;;;0.93;;
79468;SDS011;68936;52.526;13.326;2023-05-27T08:31:43;3.83;;;0.80;;
79468;SDS011;68936;52.526;13.326;2023-05-27T08:34:10;3.20;;;0.85;;
79468;SDS011;68936;52.526;13.326;2023-05-27T08:36:36;2.95;;;0.80;;
79468;SDS011;68936;52.526;13.326;2023-05-27T08:39:02;4.68;;;0.80;;
79468;SDS011;68936;52.526;13.326;2023-05-27T08:41:29;2.00;;;0.80;;
79468;SDS011;68936;52.526;13.326;2023-05-27T08:43:55;3.38;;;0.93;;
79468;SDS011;68936;52.526;13.326;2023-05-27T08:46:22;1.80;;;0.80;;
79468;SDS011;68936;52.526;13.326;2023-05-27T08:48:48;3.28;;;1.05;;
79468;SDS011;68936;52.526;13.326;2023-05-27T08:51:17;2.38;;;0.88;;
79468;SDS011;68936;52.526;13.326;2023-05-27T08:53:43;2.72;;;1.33;;
79468;SDS011;68936;52.526;13.326;2023-05-27T08:56:13;3.28;;;1.05;;
79468;SDS011;68936;52.526;13.326;2023-05-27T08:58:42;3.35;;;0.85;;
79468;SDS011;68936;52.526;13.326;2023-05-27T09:01:08;4.55;;;1.55;;
79468;SDS011;68936;52.526;13.326;2023-05-27T09:03:35;2.60;;;1.23;;
79468;SDS011;68936;52.526;13.326;2023-05-27T09:06:02;5.97;;;2.00;;
79468;SDS011;68936;52.526;13.326;2023-05-27T09:08:29;5.75;;;2.83;;
79468;SDS011;68936;52.526;13.326;2023-05-27T09:10:55;4.03;;;1.80;;
79468;SDS011;68936;52.526;13.326;2023-05-27T09:13:26;3.90;;;1.60;;
79468;SDS011;68936;52.526;13.326;2023-05-27T09:16:02;8.55;;;1.83;;
79468;SDS011;68936;52.526;13.326;2023-05-27T09:18:32;3.17;;;0.98;;
79468;SDS011;68936;52.526;13.326;2023-05-27T09:20:58;3.13;;;1.10;;
79468;SDS011;68936;52.526;13.326;2023-05-27T09:23:24;4.68;;;1.00;;
79468;SDS011;68936;52.526;13.326;2023-05-27T09:25:51;3.28;;;1.27;;
79468;SDS011;68936;52.526;13.326;2023-05-27T09:28:23;3.30;;;0.70;;
79468;SDS011;68936;52.526;13.326;2023-05-27T09:31:06;3.03;;;1.08;;
79468;SDS011;68936;52.526;13.326;2023-05-27T09:33:33;4.18;;;1.23;;
79468;SDS011;68936;52.526;13.326;2023-05-27T09:36:00;2.60;;;1.10;;
79468;SDS011;68936;52.526;13.326;2023-05-27T09:38:32;2.33;;;1.02;;
79468;SDS011;68936;52.526;13.326;2023-05-27T09:40:59;3.03;;;1.27;;
79468;SDS011;68936;52.526;13.326;2023-05-27T09:43:26;3.05;;;1.50;;
79468;SDS011;68936;52.526;13.326;2023-05-27T09:45:58;3.92;;;1.50;;
79468;SDS011;68936;52.526;13.326;2023-05-27T09:48:25;2.78;;;1.75;;
79468;SDS011;68936;52.526;13.326;2023-05-27T09:50:52;4.32;;;2.33;;
79468;SDS011;68936;52.526;13.326;2023-05-27T09:53:20;2.92;;;2.10;;
79468;SDS011;68936;52.526;13.326;2023-05-27T09:55:49;6.05;;;3.55;;
79468;SDS011;68936;52.526;13.326;2023-05-27T09:58:15;6.95;;;2.88;;
79468;SDS011;68936;52.526;13.326;2023-05-27T10:00:43;4.32;;;2.28;;
79468;SDS011;68936;52.526;13.326;2023-05-27T10:03:10;3.20;;;1.70;;
79468;SDS011;68936;52.526;13.326;2023-05-27T10:05:36;3.33;;;1.70;;
79468;SDS011;68936;52.526;13.326;2023-05-27T10:08:04;2.25;;;1.73;;
79468;SDS011;68936;52.526;13.326;2023-05-27T10:10:31;2.15;;;1.50;;
79468;SDS011;68936;52.526;13.326;2023-05-27T10:13:00;3.33;;;1.50;;
79468;SDS011;68936;52.526;13.326;2023-05-27T10:15:30;3.10;;;1.52;;
79468;SDS011;68936;52.526;13.326;2023-05-27T10:17:59;2.88;;;1.50;;
79468;SDS011;68936;52.526;13.326;2023-05-27T10:22:51;2.15;;;1.00;;
79468;SDS011;68936;52.526;13.326;2023-05-27T10:25:18;1.85;;;1.23;;
79468;SDS011;68936;52.526;13.326;2023-05-27T10:27:47;1.55;;;1.05;;
79468;SDS011;68936;52.526;13.326;2023-05-27T10:30:16;2.25;;;1.20;;
79468;SDS011;68936;52.526;13.326;2023-05-27T10:32:51;2.90;;;1.33;;
79468;SDS011;68936;52.526;13.326;2023-05-27T10:35:19;3.22;;;1.20;;
79468;SDS011;68936;52.526;13.326;2023-05-27T10:37:48;3.13;;;1.20;;
79468;SDS011;68936;52.526;13.326;2023-05-27T10:40:23;2.83;;;1.45;;
79468;SDS011;68936;52.526;13.326;2023-05-27T10:42:59;3.85;;;1.23;;
79468;SDS011;68936;52.526;13.326;2023-05-27T10:45:31;1.10;;;0.90;;
79468;SDS011;68936;52.526;13.326;2023-05-27T10:47:58;6.75;;;1.30;;
79468;SDS011;68936;52.526;13.326;2023-05-27T10:50:28;2.38;;;1.35;;
79468;SDS011;68936;52.526;13.326;2023-05-27T10:52:56;2.40;;;1.50;;
79468;SDS011;68936;52.526;13.326;2023-05-27T10:55:22;3.35;;;1.40;;
79468;SDS011;68936;52.526;13.326;2023-05-27T10:57:51;2.67;;;1.50;;
79468;SDS011;68936;52.526;13.326;2023-05-27T11:00:21;1.95;;;1.30;;
79468;SDS011;68936;52.526;13.326;2023-05-27T11:02:49;2.83;;;1.50;;
79468;SDS011;68936;52.526;13.326;2023-05-27T11:05:19;2.78;;;1.50;;
79468;SDS011;68936;52.526;13.326;2023-05-27T11:07:45;2.58;;;1.60;;
79468;SDS011;68936;52.526;13.326;2023-05-27T11:10:14;2.63;;;1.45;;
79468;SDS011;68936;52.526;13.326;2023-05-27T11:12:43;2.53;;;1.30;;
79468;SDS011;68936;52.526;13.326;2023-05-27T11:15:10;3.00;;;1.70;;
79468;SDS011;68936;52.526;13.326;2023-05-27T11:17:39;1.75;;;1.33;;
79468;SDS011;68936;52.526;13.326;2023-05-27T11:20:05;2.17;;;1.40;;
79468;SDS011;68936;52.526;13.326;2023-05-27T11:22:32;2.75;;;1.60;;
79468;SDS011;68936;52.526;13.326;2023-05-27T11:24:59;4.32;;;1.60;;
79468;SDS011;68936;52.526;13.326;2023-05-27T11:27:32;1.73;;;1.33;;
79468;SDS011;68936;52.526;13.326;2023-05-27T11:29:59;2.85;;;1.90;;
79468;SDS011;68936;52.526;13.326;2023-05-27T11:32:25;2.13;;;1.30;;
79468;SDS011;68936;52.526;13.326;2023-05-27T11:34:51;1.75;;;1.27;;
79468;SDS011;68936;52.526;13.326;2023-05-27T11:37:19;3.47;;;1.45;;
79468;SDS011;68936;52.526;13.326;2023-05-27T11:39:53;1.73;;;1.48;;
79468;SDS011;68936;52.526;13.326;2023-05-27T11:42:22;2.03;;;1.40;;
79468;SDS011;68936;52.526;13.326;2023-05-27T11:44:52;2.65;;;1.50;;
79468;SDS011;68936;52.526;13.326;2023-05-27T11:47:18;2.10;;;1.40;;
79468;SDS011;68936;52.526;13.326;2023-05-27T11:49:49;2.53;;;1.50;;
79468;SDS011;68936;52.526;13.326;2023-05-27T11:52:15;2.13;;;1.42;;
79468;SDS011;68936;52.526;13.326;2023-05-27T11:54:43;1.98;;;1.30;;
79468;SDS011;68936;52.526;13.326;2023-05-27T11:57:09;3.22;;;1.30;;
79468;SDS011;68936;52.526;13.326;2023-05-27T11:59:37;1.80;;;1.38;;
79468;SDS011;68936;52.526;13.326;2023-05-27T12:02:03;2.38;;;1.55;;
79468;SDS011;68936;52.526;13.326;2023-05-27T12:04:29;1.98;;;1.50;;
79468;SDS011;68936;52.526;13.326;2023-05-27T12:06:55;1.73;;;1.15;;
79468;SDS011;68936;52.526;13.326;2023-05-27T12:09:25;2.15;;;1.52;;
79468;SDS011;68936;52.526;13.326;2023-05-27T12:11:52;3.45;;;1.58;;
79468;SDS011;68936;52.526;13.326;2023-05-27T12:14:18;2.20;;;1.20;;
79468;SDS011;68936;52.526;13.326;2023-05-27T12:16:46;2.22;;;1.52;;
79468;SDS011;68936;52.526;13.326;2023-05-27T12:19:12;2.17;;;1.40;;
79468;SDS011;68936;52.526;13.326;2023-05-27T12:21:38;2.00;;;1.45;;
79468;SDS011;68936;52.526;13.326;2023-05-27T12:24:05;1.77;;;1.20;;
79468;SDS011;68936;52.526;13.326;2023-05-27T12:26:31;2.13;;;1.33;;
79468;SDS011;68936;52.526;13.326;2023-05-27T12:28:57;2.00;;;1.08;;
79468;SDS011;68936;52.526;13.326;2023-05-27T12:31:24;2.20;;;1.35;;
79468;SDS011;68936;52.526;13.326;2023-05-27T12:33:50;2.25;;;1.33;;
79468;SDS011;68936;52.526;13.326;2023-05-27T12:36:19;2.10;;;1.40;;
79468;SDS011;68936;52.526;13.326;2023-05-27T12:38:47;2.17;;;1.13;;
79468;SDS011;68936;52.526;13.326;2023-05-27T12:41:15;2.15;;;1.38;;
79468;SDS011;68936;52.526;13.326;2023-05-27T12:43:41;1.65;;;1.10;;
79468;SDS011;68936;52.526;13.326;2023-05-27T12:46:08;2.10;;;1.30;;
79468;SDS011;68936;52.526;13.326;2023-05-27T12:48:34;1.67;;;1.40;;
79468;SDS011;68936;52.526;13.326;2023-05-27T12:51:00;1.95;;;1.38;;
79468;SDS011;68936;52.526;13.326;2023-05-27T12:53:26;2.53;;;1.70;;
79468;SDS011;68936;52.526;13.326;2023-05-27T12:55:52;3.40;;;1.35;;
79468;SDS011;68936;52.526;13.326;2023-05-27T12:58:18;2.13;;;1.60;;
79468;SDS011;68936;52.526;13.326;2023-05-27T13:00:44;1.88;;;1.20;;
79468;SDS011;68936;52.526;13.326;2023-05-27T13:03:10;3.20;;;1.48;;
79468;SDS011;68936;52.526;13.326;2023-05-27T13:05:39;2.42;;;1.70;;
79468;SDS011;68936;52.526;13.326;2023-05-27T13:08:05;2.97;;;1.60;;
79468;SDS011;68936;52.526;13.326;2023-05-27T13:10:31;2.38;;;1.60;;
79468;SDS011;68936;52.526;13.326;2023-05-27T13:12:58;2.33;;;1.52;;
79468;SDS011;68936;52.526;13.326;2023-05-27T13:15:25;2.03;;;1.40;;
79468;SDS011;68936;52.526;13.326;2023-05-27T13:17:51;2.78;;;1.70;;
79468;SDS011;68936;52.526;13.326;2023-05-27T13:20:21;2.63;;;2.13;;
79468;SDS011;68936;52.526;13.326;2023-05-27T13:22:48;3.20;;;2.00;;
79468;SDS011;68936;52.526;13.326;2023-05-27T13:25:17;2.72;;;2.13;;
79468;SDS011;68936;52.526;13.326;2023-05-27T13:27:44;2.97;;;1.73;;
79468;SDS011;68936;52.526;13.326;2023-05-27T13:30:14;3.38;;;1.67;;
79468;SDS011;68936;52.526;13.326;2023-05-27T13:32:43;3.10;;;2.20;;
79468;SDS011;68936;52.526;13.326;2023-05-27T13:35:09;2.58;;;2.20;;
79468;SDS011;68936;52.526;13.326;2023-05-27T13:37:43;3.63;;;2.22;;
79468;SDS011;68936;52.526;13.326;2023-05-27T13:40:10;2.15;;;1.80;;
79468;SDS011;68936;52.526;13.326;2023-05-27T13:42:36;2.47;;;1.80;;
79468;SDS011;68936;52.526;13.326;2023-05-27T13:45:02;4.43;;;2.40;;
79468;SDS011;68936;52.526;13.326;2023-05-27T13:47:31;2.88;;;2.30;;
79468;SDS011;68936;52.526;13.326;2023-05-27T13:49:57;2.55;;;2.05;;
79468;SDS011;68936;52.526;13.326;2023-05-27T13:52:23;3.20;;;2.22;;
79468;SDS011;68936;52.526;13.326;2023-05-27T13:54:49;2.88;;;2.45;;
79468;SDS011;68936;52.526;13.326;2023-05-27T13:57:17;3.95;;;2.80;;
79468;SDS011;68936;52.526;13.326;2023-05-27T13:59:43;3.65;;;2.67;;
79468;SDS011;68936;52.526;13.326;2023-05-27T14:02:10;3.88;;;2.33;;
79468;SDS011;68936;52.526;13.326;2023-05-27T14:04:35;2.63;;;2.00;;
79468;SDS011;68936;52.526;13.326;2023-05-27T14:07:01;2.90;;;2.42;;
79468;SDS011;68936;52.526;13.326;2023-05-27T14:09:27;3.20;;;2.40;;
79468;SDS011;68936;52.526;13.326;2023-05-27T14:11:54;3.30;;;2.22;;
79468;SDS011;68936;52.526;13.326;2023-05-27T14:14:20;4.47;;;2.28;;
79468;SDS011;68936;52.526;13.326;2023-05-27T14:16:49;4.13;;;2.75;;
79468;SDS011;68936;52.526;13.326;2023-05-27T14:19:15;2.83;;;2.53;;
79468;SDS011;68936;52.526;13.326;2023-05-27T14:21:42;3.40;;;2.60;;
79468;SDS011;68936;52.526;13.326;2023-05-27T14:24:07;3.05;;;2.47;;
79468;SDS011;68936;52.526;13.326;2023-05-27T14:26:36;3.30;;;2.83;;
79468;SDS011;68936;52.526;13.326;2023-05-27T14:29:02;3.63;;;2.70;;
79468;SDS011;68936;52.526;13.326;2023-05-27T14:31:28;3.28;;;2.47;;
79468;SDS011;68936;52.526;13.326;2023-05-27T14:33:54;3.72;;;2.70;;
79468;SDS011;68936;52.526;13.326;2023-05-27T14:36:20;2.90;;;2.60;;
79468;SDS011;68936;52.526;13.326;2023-05-27T14:38:49;3.15;;;2.33;;
79468;SDS011;68936;52.526;13.326;2023-05-27T14:41:15;4.05;;;2.60;;